Bourg, LA (70343)

11:59 AM CST on February 13, 2016 (GMT -0600)
Green Acres | | Change Station
CLOSE
Current Station
Personal Weather Station
Location: Bourg, LA
Elevation: 16 ft
Nearby Weather Stations

Elev 16 ft 29.56 °N, 90.64 °W | Updated 32 seconds ago

Clear
Clear
62.2 °F
Feels Like 62.2 °F
N
8.9
Wind Variable Wind from East
Gusts 10.4 mph

Today
High -- | Low -- °F
--% Chance of Precip.
Yesterday
High -- | Low -- °F
Precip. -- in
Pressure 30.42 in
Visibility 7.0 miles
Clouds Clear
Dew Point 34 °F
Humidity 35%
Rainfall 0.00 in
Snow Depth Not available.
6:43 AM 5:49 PM
Waxing Crescent, 32% visible
METAR KHUM 131750Z 07010G17KT 7SM SKC 16/02 A3042 RMK RY 36 ATIS L..DV
Pressure 30.42 in
Visibility 7.0 miles
Clouds Clear
Dew Point 34 °F
Humidity 35%
Rainfall 0.00 in
Snow Depth Not available.
6:43 AM 5:49 PM
Waxing Crescent, 32% visible
METAR KHUM 131750Z 07010G17KT 7SM SKC 16/02 A3042 RMK RY 36 ATIS L..DV

10-Day Weather Forecast

Almanac

Astronomy

Feb. 13, 2016 Rise Set
Actual Time
Civil Twilight
Nautical Twilight
Astronomical Twilight
Moon
Length of Visible Light
Length of Day
Tomorrow will be .
, % of the Moon is Illuminated

Today's Extremes

State Highs State Lows

Community

WunderPhotos

Upload Photos

1,892,623 photos uploaded!

WunderBlog® & News

Nearby

Air Quality

  Air Quality AQ Index Pollutant
Not available.

Snow Depth

Station Depth Elevation

Earthquake Activity

City Distance Mag. Time & Date
Minimum magnitude displayed is 2.5.

Coastal Water Temperatures

Place Temperature

Stations

Nearby Weather Stations

Station Location Temp. Windchill Dew Point Humidity Wind Precip. Elev Updated Type
                   

Watches & Warnings

There are currently no watches in effect.